Athol, Idaho
Current Conditions -  °F | °C
As of 2:55 PM on Wednesday 22 Oct 2014 (Local Time) from KCOE Reporting Station
Overcast Overcast  
Wind Chill: 57°   Ceiling: 5000
Heat Index: 57°   Visibility: 10mi
Dew Point: 41°   Wind: 5mph
Humidity: 55%   Direction: 140°SE
Pressure: 29.85"   Gusts: NA
Location:  47.95°N, 116.71°W
Report Text: KCOE 222155Z AUTO 14004KT 10SM OVC050 14/05 A2985 RMK AO1
Loading
Personal Weather Stations






























Interactive Weather Map New forecast layout! Learn more

10-Day Weather Forecast

Advertisements
Track Severe Weather on mobile